sensor_id;sensor_type;location;lat;lon;timestamp;P1;durP1;ratioP1;P2;durP2;ratioP2
3349;SDS011;1688;51.000;13.684;2023-04-19T00:01:29;13.70;;;7.17;;
3349;SDS011;1688;51.000;13.684;2023-04-19T00:04:03;13.80;;;5.20;;
3349;SDS011;1688;51.000;13.684;2023-04-19T00:06:37;9.07;;;5.17;;
3349;SDS011;1688;51.000;13.684;2023-04-19T00:09:12;7.80;;;6.20;;
3349;SDS011;1688;51.000;13.684;2023-04-19T00:11:45;12.23;;;6.77;;
3349;SDS011;1688;51.000;13.684;2023-04-19T00:14:18;10.00;;;5.43;;
3349;SDS011;1688;51.000;13.684;2023-04-19T00:16:52;5.03;;;4.13;;
3349;SDS011;1688;51.000;13.684;2023-04-19T00:19:25;5.97;;;4.77;;
3349;SDS011;1688;51.000;13.684;2023-04-19T00:21:58;9.00;;;6.60;;
3349;SDS011;1688;51.000;13.684;2023-04-19T00:24:31;5.30;;;4.40;;
3349;SDS011;1688;51.000;13.684;2023-04-19T00:27:05;5.10;;;4.23;;
3349;SDS011;1688;51.000;13.684;2023-04-19T00:29:38;4.87;;;4.13;;
3349;SDS011;1688;51.000;13.684;2023-04-19T00:32:11;13.63;;;4.70;;
3349;SDS011;1688;51.000;13.684;2023-04-19T00:34:44;5.60;;;3.47;;
3349;SDS011;1688;51.000;13.684;2023-04-19T00:37:18;7.30;;;4.30;;
3349;SDS011;1688;51.000;13.684;2023-04-19T00:39:51;7.17;;;5.27;;
3349;SDS011;1688;51.000;13.684;2023-04-19T00:42:25;7.53;;;5.40;;
3349;SDS011;1688;51.000;13.684;2023-04-19T00:44:58;14.17;;;5.93;;
3349;SDS011;1688;51.000;13.684;2023-04-19T00:47:31;11.00;;;5.07;;
3349;SDS011;1688;51.000;13.684;2023-04-19T00:50:04;8.73;;;3.93;;
3349;SDS011;1688;51.000;13.684;2023-04-19T00:52:38;5.87;;;5.37;;
3349;SDS011;1688;51.000;13.684;2023-04-19T00:55:12;5.70;;;4.30;;
3349;SDS011;1688;51.000;13.684;2023-04-19T00:57:45;16.17;;;7.03;;
3349;SDS011;1688;51.000;13.684;2023-04-19T01:00:18;7.10;;;4.67;;
3349;SDS011;1688;51.000;13.684;2023-04-19T01:02:51;5.30;;;4.80;;
3349;SDS011;1688;51.000;13.684;2023-04-19T01:05:26;5.17;;;4.23;;
3349;SDS011;1688;51.000;13.684;2023-04-19T01:08:00;9.97;;;6.20;;
3349;SDS011;1688;51.000;13.684;2023-04-19T01:10:33;7.40;;;5.13;;
3349;SDS011;1688;51.000;13.684;2023-04-19T01:13:07;6.10;;;3.93;;
3349;SDS011;1688;51.000;13.684;2023-04-19T01:15:40;8.77;;;4.77;;
3349;SDS011;1688;51.000;13.684;2023-04-19T01:18:13;9.03;;;5.20;;
3349;SDS011;1688;51.000;13.684;2023-04-19T01:20:46;6.70;;;4.27;;
3349;SDS011;1688;51.000;13.684;2023-04-19T01:23:20;10.53;;;6.00;;
3349;SDS011;1688;51.000;13.684;2023-04-19T01:25:53;6.47;;;4.63;;
3349;SDS011;1688;51.000;13.684;2023-04-19T01:28:27;6.20;;;5.60;;
3349;SDS011;1688;51.000;13.684;2023-04-19T01:31:00;6.87;;;4.03;;
3349;SDS011;1688;51.000;13.684;2023-04-19T01:33:34;6.87;;;4.00;;
3349;SDS011;1688;51.000;13.684;2023-04-19T01:36:07;8.23;;;5.73;;
3349;SDS011;1688;51.000;13.684;2023-04-19T01:38:40;6.93;;;3.80;;
3349;SDS011;1688;51.000;13.684;2023-04-19T01:41:14;5.73;;;5.23;;
3349;SDS011;1688;51.000;13.684;2023-04-19T01:43:47;8.73;;;4.40;;
3349;SDS011;1688;51.000;13.684;2023-04-19T01:46:20;5.00;;;3.30;;
3349;SDS011;1688;51.000;13.684;2023-04-19T01:48:53;6.93;;;4.33;;
3349;SDS011;1688;51.000;13.684;2023-04-19T01:51:27;4.77;;;3.73;;
3349;SDS011;1688;51.000;13.684;2023-04-19T01:54:00;17.60;;;4.20;;
3349;SDS011;1688;51.000;13.684;2023-04-19T01:56:33;7.77;;;4.43;;
3349;SDS011;1688;51.000;13.684;2023-04-19T01:59:07;7.90;;;4.23;;
3349;SDS011;1688;51.000;13.684;2023-04-19T02:01:40;6.43;;;5.23;;
3349;SDS011;1688;51.000;13.684;2023-04-19T02:04:13;19.27;;;6.63;;
3349;SDS011;1688;51.000;13.684;2023-04-19T02:06:47;9.90;;;3.90;;
3349;SDS011;1688;51.000;13.684;2023-04-19T02:09:20;5.47;;;3.70;;
3349;SDS011;1688;51.000;13.684;2023-04-19T02:11:54;11.50;;;5.07;;
3349;SDS011;1688;51.000;13.684;2023-04-19T02:14:27;16.60;;;6.90;;
3349;SDS011;1688;51.000;13.684;2023-04-19T02:17:00;8.93;;;6.47;;
3349;SDS011;1688;51.000;13.684;2023-04-19T02:19:33;5.83;;;4.20;;
3349;SDS011;1688;51.000;13.684;2023-04-19T02:22:07;13.43;;;3.03;;
3349;SDS011;1688;51.000;13.684;2023-04-19T02:24:40;7.53;;;5.73;;
3349;SDS011;1688;51.000;13.684;2023-04-19T02:27:13;5.80;;;4.70;;
3349;SDS011;1688;51.000;13.684;2023-04-19T02:29:46;5.93;;;4.60;;
3349;SDS011;1688;51.000;13.684;2023-04-19T02:32:20;9.10;;;5.30;;
3349;SDS011;1688;51.000;13.684;2023-04-19T02:34:53;7.90;;;5.93;;
3349;SDS011;1688;51.000;13.684;2023-04-19T02:37:26;6.63;;;4.80;;
3349;SDS011;1688;51.000;13.684;2023-04-19T02:39:59;15.50;;;4.97;;
3349;SDS011;1688;51.000;13.684;2023-04-19T02:42:33;10.50;;;5.27;;
3349;SDS011;1688;51.000;13.684;2023-04-19T02:45:06;6.07;;;5.47;;
3349;SDS011;1688;51.000;13.684;2023-04-19T02:47:40;10.80;;;6.40;;
3349;SDS011;1688;51.000;13.684;2023-04-19T02:50:14;5.60;;;4.70;;
3349;SDS011;1688;51.000;13.684;2023-04-19T02:52:48;11.93;;;5.77;;
3349;SDS011;1688;51.000;13.684;2023-04-19T02:55:21;5.13;;;3.90;;
3349;SDS011;1688;51.000;13.684;2023-04-19T02:57:54;11.20;;;6.17;;
3349;SDS011;1688;51.000;13.684;2023-04-19T03:00:27;7.70;;;4.40;;
3349;SDS011;1688;51.000;13.684;2023-04-19T03:03:01;9.60;;;5.60;;
3349;SDS011;1688;51.000;13.684;2023-04-19T03:05:35;7.63;;;5.20;;
3349;SDS011;1688;51.000;13.684;2023-04-19T03:08:09;11.33;;;5.13;;
3349;SDS011;1688;51.000;13.684;2023-04-19T03:10:43;8.83;;;4.37;;
3349;SDS011;1688;51.000;13.684;2023-04-19T03:13:16;7.50;;;4.50;;
3349;SDS011;1688;51.000;13.684;2023-04-19T03:15:49;5.03;;;3.80;;
3349;SDS011;1688;51.000;13.684;2023-04-19T03:18:23;6.40;;;3.83;;
3349;SDS011;1688;51.000;13.684;2023-04-19T03:20:56;10.40;;;4.17;;
3349;SDS011;1688;51.000;13.684;2023-04-19T03:23:29;4.90;;;4.50;;
3349;SDS011;1688;51.000;13.684;2023-04-19T03:26:02;8.00;;;4.90;;
3349;SDS011;1688;51.000;13.684;2023-04-19T03:28:36;7.33;;;5.70;;
3349;SDS011;1688;51.000;13.684;2023-04-19T03:31:09;9.30;;;4.90;;
3349;SDS011;1688;51.000;13.684;2023-04-19T03:33:42;10.40;;;3.37;;
3349;SDS011;1688;51.000;13.684;2023-04-19T03:36:15;11.43;;;5.67;;
3349;SDS011;1688;51.000;13.684;2023-04-19T03:38:49;6.07;;;3.73;;
3349;SDS011;1688;51.000;13.684;2023-04-19T03:41:23;4.47;;;4.03;;
3349;SDS011;1688;51.000;13.684;2023-04-19T03:43:56;4.17;;;3.37;;
3349;SDS011;1688;51.000;13.684;2023-04-19T03:46:29;12.03;;;9.07;;
3349;SDS011;1688;51.000;13.684;2023-04-19T03:49:03;8.77;;;6.07;;
3349;SDS011;1688;51.000;13.684;2023-04-19T03:51:36;6.47;;;4.97;;
3349;SDS011;1688;51.000;13.684;2023-04-19T03:54:10;9.03;;;5.20;;
3349;SDS011;1688;51.000;13.684;2023-04-19T03:56:44;9.40;;;5.30;;
3349;SDS011;1688;51.000;13.684;2023-04-19T03:59:17;11.87;;;5.77;;
3349;SDS011;1688;51.000;13.684;2023-04-19T04:01:50;4.70;;;3.70;;
3349;SDS011;1688;51.000;13.684;2023-04-19T04:04:24;19.03;;;7.73;;
3349;SDS011;1688;51.000;13.684;2023-04-19T04:06:57;9.70;;;5.50;;
3349;SDS011;1688;51.000;13.684;2023-04-19T04:09:31;12.30;;;6.50;;
3349;SDS011;1688;51.000;13.684;2023-04-19T04:12:04;9.50;;;6.27;;
3349;SDS011;1688;51.000;13.684;2023-04-19T04:14:37;10.13;;;5.70;;
3349;SDS011;1688;51.000;13.684;2023-04-19T04:17:10;19.63;;;7.57;;
3349;SDS011;1688;51.000;13.684;2023-04-19T04:19:44;9.00;;;6.17;;
3349;SDS011;1688;51.000;13.684;2023-04-19T04:22:17;6.67;;;5.97;;
3349;SDS011;1688;51.000;13.684;2023-04-19T04:24:51;9.63;;;7.10;;
3349;SDS011;1688;51.000;13.684;2023-04-19T04:27:25;7.80;;;4.97;;
3349;SDS011;1688;51.000;13.684;2023-04-19T04:29:58;10.63;;;8.50;;
3349;SDS011;1688;51.000;13.684;2023-04-19T04:32:32;14.20;;;8.10;;
3349;SDS011;1688;51.000;13.684;2023-04-19T04:35:10;10.47;;;6.33;;
3349;SDS011;1688;51.000;13.684;2023-04-19T04:37:43;9.23;;;8.37;;
3349;SDS011;1688;51.000;13.684;2023-04-19T04:40:17;12.47;;;6.60;;
3349;SDS011;1688;51.000;13.684;2023-04-19T04:42:51;10.10;;;6.77;;
3349;SDS011;1688;51.000;13.684;2023-04-19T04:45:25;21.43;;;7.37;;
3349;SDS011;1688;51.000;13.684;2023-04-19T04:48:00;8.77;;;5.17;;
3349;SDS011;1688;51.000;13.684;2023-04-19T04:50:33;11.00;;;8.63;;
3349;SDS011;1688;51.000;13.684;2023-04-19T04:53:07;11.50;;;6.77;;
3349;SDS011;1688;51.000;13.684;2023-04-19T04:55:44;9.47;;;5.20;;
3349;SDS011;1688;51.000;13.684;2023-04-19T04:58:17;21.90;;;5.60;;
3349;SDS011;1688;51.000;13.684;2023-04-19T05:00:51;5.73;;;5.10;;
3349;SDS011;1688;51.000;13.684;2023-04-19T05:03:25;6.90;;;5.63;;
3349;SDS011;1688;51.000;13.684;2023-04-19T05:05:58;6.13;;;4.70;;
3349;SDS011;1688;51.000;13.684;2023-04-19T05:08:32;5.90;;;4.90;;
3349;SDS011;1688;51.000;13.684;2023-04-19T05:11:05;12.30;;;7.90;;
3349;SDS011;1688;51.000;13.684;2023-04-19T05:13:38;5.23;;;4.20;;
3349;SDS011;1688;51.000;13.684;2023-04-19T05:16:11;8.33;;;4.30;;
3349;SDS011;1688;51.000;13.684;2023-04-19T05:18:45;15.30;;;5.43;;
3349;SDS011;1688;51.000;13.684;2023-04-19T05:21:18;5.10;;;4.60;;
3349;SDS011;1688;51.000;13.684;2023-04-19T05:23:52;14.70;;;3.83;;
3349;SDS011;1688;51.000;13.684;2023-04-19T05:26:25;6.73;;;4.00;;
3349;SDS011;1688;51.000;13.684;2023-04-19T05:28:58;5.63;;;4.43;;
3349;SDS011;1688;51.000;13.684;2023-04-19T05:31:31;10.57;;;5.13;;
3349;SDS011;1688;51.000;13.684;2023-04-19T05:34:05;7.60;;;4.47;;
3349;SDS011;1688;51.000;13.684;2023-04-19T05:36:38;3.53;;;2.40;;
3349;SDS011;1688;51.000;13.684;2023-04-19T05:39:11;7.20;;;5.60;;
3349;SDS011;1688;51.000;13.684;2023-04-19T05:41:45;6.67;;;6.00;;
3349;SDS011;1688;51.000;13.684;2023-04-19T05:44:18;4.27;;;3.10;;
3349;SDS011;1688;51.000;13.684;2023-04-19T05:46:51;3.80;;;2.40;;
3349;SDS011;1688;51.000;13.684;2023-04-19T05:49:24;4.80;;;3.00;;
3349;SDS011;1688;51.000;13.684;2023-04-19T05:51:57;1.77;;;1.30;;
3349;SDS011;1688;51.000;13.684;2023-04-19T05:54:31;3.90;;;1.70;;
3349;SDS011;1688;51.000;13.684;2023-04-19T05:57:07;3.77;;;2.40;;
3349;SDS011;1688;51.000;13.684;2023-04-19T05:59:40;3.30;;;2.17;;
3349;SDS011;1688;51.000;13.684;2023-04-19T06:02:13;7.63;;;1.47;;
3349;SDS011;1688;51.000;13.684;2023-04-19T06:04:47;3.50;;;2.60;;
3349;SDS011;1688;51.000;13.684;2023-04-19T06:07:21;2.80;;;2.27;;
3349;SDS011;1688;51.000;13.684;2023-04-19T06:10:05;2.47;;;1.43;;
3349;SDS011;1688;51.000;13.684;2023-04-19T06:12:38;2.33;;;2.13;;
3349;SDS011;1688;51.000;13.684;2023-04-19T06:15:12;2.60;;;1.40;;
3349;SDS011;1688;51.000;13.684;2023-04-19T06:17:45;5.03;;;2.40;;
3349;SDS011;1688;51.000;13.684;2023-04-19T06:20:18;3.70;;;1.17;;
3349;SDS011;1688;51.000;13.684;2023-04-19T06:22:52;2.80;;;1.70;;
3349;SDS011;1688;51.000;13.684;2023-04-19T06:25:25;1.70;;;1.17;;
3349;SDS011;1688;51.000;13.684;2023-04-19T06:27:58;3.07;;;1.30;;
3349;SDS011;1688;51.000;13.684;2023-04-19T06:30:32;3.13;;;1.73;;
3349;SDS011;1688;51.000;13.684;2023-04-19T06:33:05;1.97;;;1.77;;
3349;SDS011;1688;51.000;13.684;2023-04-19T06:35:38;3.17;;;1.43;;
3349;SDS011;1688;51.000;13.684;2023-04-19T06:38:11;2.07;;;1.73;;
3349;SDS011;1688;51.000;13.684;2023-04-19T06:40:45;3.23;;;1.57;;
3349;SDS011;1688;51.000;13.684;2023-04-19T06:43:18;4.13;;;1.13;;
3349;SDS011;1688;51.000;13.684;2023-04-19T06:45:59;1.70;;;1.60;;
3349;SDS011;1688;51.000;13.684;2023-04-19T06:48:32;1.77;;;1.67;;
3349;SDS011;1688;51.000;13.684;2023-04-19T06:51:06;3.23;;;1.50;;
3349;SDS011;1688;51.000;13.684;2023-04-19T06:53:39;4.03;;;2.73;;
3349;SDS011;1688;51.000;13.684;2023-04-19T06:56:43;1.47;;;1.20;;
3349;SDS011;1688;51.000;13.684;2023-04-19T06:59:17;1.47;;;1.20;;
3349;SDS011;1688;51.000;13.684;2023-04-19T07:01:51;2.53;;;1.73;;
3349;SDS011;1688;51.000;13.684;2023-04-19T07:04:25;2.23;;;1.67;;
3349;SDS011;1688;51.000;13.684;2023-04-19T07:06:59;2.37;;;1.80;;
3349;SDS011;1688;51.000;13.684;2023-04-19T07:09:32;1.10;;;0.63;;
3349;SDS011;1688;51.000;13.684;2023-04-19T07:12:05;4.23;;;1.93;;
3349;SDS011;1688;51.000;13.684;2023-04-19T07:14:38;1.33;;;1.10;;
3349;SDS011;1688;51.000;13.684;2023-04-19T07:17:12;3.33;;;2.00;;
3349;SDS011;1688;51.000;13.684;2023-04-19T07:19:48;11.53;;;2.53;;
3349;SDS011;1688;51.000;13.684;2023-04-19T07:22:21;2.20;;;1.47;;
3349;SDS011;1688;51.000;13.684;2023-04-19T07:24:55;3.70;;;1.80;;
3349;SDS011;1688;51.000;13.684;2023-04-19T07:27:28;3.40;;;1.37;;
3349;SDS011;1688;51.000;13.684;2023-04-19T07:30:01;4.90;;;1.77;;
3349;SDS011;1688;51.000;13.684;2023-04-19T07:32:35;13.60;;;1.60;;
3349;SDS011;1688;51.000;13.684;2023-04-19T07:35:08;3.40;;;1.97;;
3349;SDS011;1688;51.000;13.684;2023-04-19T07:37:42;3.73;;;2.30;;
3349;SDS011;1688;51.000;13.684;2023-04-19T07:40:15;2.97;;;2.20;;
3349;SDS011;1688;51.000;13.684;2023-04-19T07:42:48;1.80;;;1.27;;
3349;SDS011;1688;51.000;13.684;2023-04-19T07:45:22;2.20;;;1.57;;
3349;SDS011;1688;51.000;13.684;2023-04-19T07:47:55;3.33;;;2.10;;
3349;SDS011;1688;51.000;13.684;2023-04-19T07:50:28;3.70;;;2.03;;
3349;SDS011;1688;51.000;13.684;2023-04-19T07:53:02;2.70;;;1.80;;
3349;SDS011;1688;51.000;13.684;2023-04-19T07:55:35;2.60;;;1.30;;
3349;SDS011;1688;51.000;13.684;2023-04-19T07:58:08;2.30;;;1.30;;
3349;SDS011;1688;51.000;13.684;2023-04-19T08:00:42;1.97;;;1.70;;
3349;SDS011;1688;51.000;13.684;2023-04-19T08:03:15;2.40;;;1.70;;
3349;SDS011;1688;51.000;13.684;2023-04-19T08:05:48;1.80;;;1.27;;
3349;SDS011;1688;51.000;13.684;2023-04-19T08:08:22;3.57;;;1.90;;
3349;SDS011;1688;51.000;13.684;2023-04-19T08:10:57;2.23;;;1.53;;
3349;SDS011;1688;51.000;13.684;2023-04-19T08:13:33;1.23;;;1.00;;
3349;SDS011;1688;51.000;13.684;2023-04-19T08:16:07;3.00;;;1.10;;
3349;SDS011;1688;51.000;13.684;2023-04-19T08:18:43;2.53;;;1.77;;
3349;SDS011;1688;51.000;13.684;2023-04-19T08:21:17;2.50;;;1.40;;
3349;SDS011;1688;51.000;13.684;2023-04-19T08:23:55;2.70;;;0.93;;
3349;SDS011;1688;51.000;13.684;2023-04-19T08:26:28;2.17;;;1.23;;
3349;SDS011;1688;51.000;13.684;2023-04-19T08:29:01;4.73;;;2.20;;
3349;SDS011;1688;51.000;13.684;2023-04-19T08:31:34;1.87;;;1.67;;
3349;SDS011;1688;51.000;13.684;2023-04-19T08:34:08;1.83;;;1.63;;
3349;SDS011;1688;51.000;13.684;2023-04-19T08:36:42;3.73;;;2.33;;
3349;SDS011;1688;51.000;13.684;2023-04-19T08:39:34;1.83;;;1.60;;
3349;SDS011;1688;51.000;13.684;2023-04-19T08:42:08;1.40;;;1.10;;
3349;SDS011;1688;51.000;13.684;2023-04-19T08:44:55;4.23;;;2.20;;
3349;SDS011;1688;51.000;13.684;2023-04-19T08:47:53;6.50;;;2.00;;
3349;SDS011;1688;51.000;13.684;2023-04-19T08:50:33;3.07;;;2.50;;
3349;SDS011;1688;51.000;13.684;2023-04-19T08:53:29;2.27;;;2.10;;
3349;SDS011;1688;51.000;13.684;2023-04-19T08:56:03;5.00;;;1.80;;
3349;SDS011;1688;51.000;13.684;2023-04-19T08:58:52;6.03;;;1.73;;
3349;SDS011;1688;51.000;13.684;2023-04-19T09:01:45;2.10;;;1.40;;
3349;SDS011;1688;51.000;13.684;2023-04-19T09:04:18;1.87;;;1.67;;
3349;SDS011;1688;51.000;13.684;2023-04-19T09:07:07;5.50;;;2.00;;
3349;SDS011;1688;51.000;13.684;2023-04-19T09:09:40;2.67;;;1.93;;
3349;SDS011;1688;51.000;13.684;2023-04-19T09:12:31;4.00;;;1.33;;
3349;SDS011;1688;51.000;13.684;2023-04-19T09:15:04;2.90;;;1.60;;
3349;SDS011;1688;51.000;13.684;2023-04-19T09:17:39;4.63;;;2.83;;
3349;SDS011;1688;51.000;13.684;2023-04-19T09:20:13;3.63;;;1.80;;
3349;SDS011;1688;51.000;13.684;2023-04-19T09:23:02;8.10;;;2.00;;
3349;SDS011;1688;51.000;13.684;2023-04-19T09:25:36;3.43;;;2.00;;
3349;SDS011;1688;51.000;13.684;2023-04-19T09:28:29;4.40;;;2.07;;
3349;SDS011;1688;51.000;13.684;2023-04-19T09:31:12;2.90;;;1.50;;
3349;SDS011;1688;51.000;13.684;2023-04-19T09:34:12;3.10;;;2.30;;
3349;SDS011;1688;51.000;13.684;2023-04-19T09:36:46;2.70;;;2.33;;
3349;SDS011;1688;51.000;13.684;2023-04-19T09:39:29;4.33;;;2.97;;
3349;SDS011;1688;51.000;13.684;2023-04-19T09:42:02;3.20;;;2.03;;
3349;SDS011;1688;51.000;13.684;2023-04-19T09:44:36;7.27;;;2.50;;
3349;SDS011;1688;51.000;13.684;2023-04-19T09:47:22;1.53;;;1.07;;
3349;SDS011;1688;51.000;13.684;2023-04-19T09:50:30;4.10;;;2.67;;
3349;SDS011;1688;51.000;13.684;2023-04-19T09:52:58;6.63;;;2.47;;
3349;SDS011;1688;51.000;13.684;2023-04-19T09:55:32;5.47;;;2.57;;
3349;SDS011;1688;51.000;13.684;2023-04-19T09:58:24;3.20;;;2.17;;
3349;SDS011;1688;51.000;13.684;2023-04-19T10:01:08;2.10;;;1.90;;
3349;SDS011;1688;51.000;13.684;2023-04-19T10:03:48;2.87;;;2.10;;
3349;SDS011;1688;51.000;13.684;2023-04-19T10:06:23;2.80;;;2.20;;
3349;SDS011;1688;51.000;13.684;2023-04-19T10:09:00;26.80;;;3.00;;
3349;SDS011;1688;51.000;13.684;2023-04-19T10:11:36;4.23;;;2.37;;
3349;SDS011;1688;51.000;13.684;2023-04-19T10:14:10;2.40;;;2.00;;
3349;SDS011;1688;51.000;13.684;2023-04-19T10:16:43;2.60;;;1.90;;
3349;SDS011;1688;51.000;13.684;2023-04-19T10:19:19;2.83;;;2.03;;
3349;SDS011;1688;51.000;13.684;2023-04-19T10:21:52;1.70;;;1.30;;
3349;SDS011;1688;51.000;13.684;2023-04-19T10:24:27;2.20;;;1.93;;
3349;SDS011;1688;51.000;13.684;2023-04-19T10:32:27;2.80;;;2.30;;
3349;SDS011;1688;51.000;13.684;2023-04-19T10:35:01;5.20;;;2.10;;
3349;SDS011;1688;51.000;13.684;2023-04-19T10:37:38;1.70;;;1.20;;
3349;SDS011;1688;51.000;13.684;2023-04-19T10:40:13;3.27;;;2.00;;
3349;SDS011;1688;51.000;13.684;2023-04-19T10:45:43;1.80;;;1.70;;
3349;SDS011;1688;51.000;13.684;2023-04-19T10:51:11;3.60;;;3.17;;
3349;SDS011;1688;51.000;13.684;2023-04-19T10:53:49;2.27;;;1.40;;
3349;SDS011;1688;51.000;13.684;2023-04-19T11:01:43;5.40;;;3.10;;
3349;SDS011;1688;51.000;13.684;2023-04-19T11:09:24;4.43;;;2.03;;
3349;SDS011;1688;51.000;13.684;2023-04-19T11:12:02;3.60;;;2.37;;
3349;SDS011;1688;51.000;13.684;2023-04-19T11:17:17;3.33;;;2.00;;
3349;SDS011;1688;51.000;13.684;2023-04-19T11:19:54;1.50;;;1.03;;
3349;SDS011;1688;51.000;13.684;2023-04-19T11:25:08;5.10;;;2.90;;
3349;SDS011;1688;51.000;13.684;2023-04-19T11:27:42;4.70;;;2.00;;
3349;SDS011;1688;51.000;13.684;2023-04-19T11:30:17;4.17;;;2.13;;
3349;SDS011;1688;51.000;13.684;2023-04-19T11:32:52;3.93;;;1.90;;
3349;SDS011;1688;51.000;13.684;2023-04-19T11:35:26;7.60;;;2.00;;
3349;SDS011;1688;51.000;13.684;2023-04-19T11:38:01;2.53;;;2.10;;
3349;SDS011;1688;51.000;13.684;2023-04-19T11:40:36;7.50;;;2.50;;
3349;SDS011;1688;51.000;13.684;2023-04-19T11:43:09;2.43;;;1.87;;
3349;SDS011;1688;51.000;13.684;2023-04-19T11:45:42;4.23;;;2.07;;
3349;SDS011;1688;51.000;13.684;2023-04-19T11:48:16;1.37;;;1.27;;
3349;SDS011;1688;51.000;13.684;2023-04-19T11:50:49;1.93;;;1.57;;
3349;SDS011;1688;51.000;13.684;2023-04-19T11:53:23;8.10;;;2.70;;
3349;SDS011;1688;51.000;13.684;2023-04-19T11:55:57;2.40;;;1.60;;
3349;SDS011;1688;51.000;13.684;2023-04-19T11:58:40;2.23;;;2.03;;
3349;SDS011;1688;51.000;13.684;2023-04-19T12:01:19;3.00;;;2.70;;
3349;SDS011;1688;51.000;13.684;2023-04-19T12:03:54;1.80;;;1.63;;
3349;SDS011;1688;51.000;13.684;2023-04-19T12:06:29;2.60;;;2.23;;
3349;SDS011;1688;51.000;13.684;2023-04-19T12:09:05;12.63;;;1.70;;
3349;SDS011;1688;51.000;13.684;2023-04-19T12:11:43;2.60;;;1.77;;
3349;SDS011;1688;51.000;13.684;2023-04-19T12:14:17;2.53;;;1.60;;
3349;SDS011;1688;51.000;13.684;2023-04-19T12:17:05;3.07;;;2.77;;
3349;SDS011;1688;51.000;13.684;2023-04-19T12:19:43;2.17;;;1.63;;
3349;SDS011;1688;51.000;13.684;2023-04-19T12:22:17;12.87;;;2.50;;
3349;SDS011;1688;51.000;13.684;2023-04-19T12:24:52;2.77;;;1.43;;
3349;SDS011;1688;51.000;13.684;2023-04-19T12:27:26;2.73;;;1.90;;
3349;SDS011;1688;51.000;13.684;2023-04-19T12:30:00;3.23;;;2.07;;
3349;SDS011;1688;51.000;13.684;2023-04-19T12:32:33;9.53;;;1.70;;
3349;SDS011;1688;51.000;13.684;2023-04-19T12:35:06;5.10;;;2.33;;
3349;SDS011;1688;51.000;13.684;2023-04-19T12:37:39;4.63;;;2.13;;
3349;SDS011;1688;51.000;13.684;2023-04-19T12:40:13;3.50;;;2.47;;
3349;SDS011;1688;51.000;13.684;2023-04-19T12:42:47;2.37;;;2.00;;
3349;SDS011;1688;51.000;13.684;2023-04-19T12:45:20;5.27;;;1.90;;
3349;SDS011;1688;51.000;13.684;2023-04-19T12:47:53;7.77;;;2.97;;
3349;SDS011;1688;51.000;13.684;2023-04-19T12:50:27;4.60;;;2.33;;
3349;SDS011;1688;51.000;13.684;2023-04-19T12:53:00;17.40;;;2.90;;
3349;SDS011;1688;51.000;13.684;2023-04-19T12:55:34;3.07;;;1.37;;
3349;SDS011;1688;51.000;13.684;2023-04-19T12:58:07;4.47;;;3.00;;
3349;SDS011;1688;51.000;13.684;2023-04-19T13:00:40;3.57;;;2.40;;
3349;SDS011;1688;51.000;13.684;2023-04-19T13:03:14;6.30;;;3.43;;
3349;SDS011;1688;51.000;13.684;2023-04-19T13:05:47;3.97;;;3.27;;
3349;SDS011;1688;51.000;13.684;2023-04-19T13:08:21;2.97;;;2.30;;
3349;SDS011;1688;51.000;13.684;2023-04-19T13:11:14;5.70;;;3.43;;
3349;SDS011;1688;51.000;13.684;2023-04-19T13:13:53;1.93;;;1.60;;
3349;SDS011;1688;51.000;13.684;2023-04-19T13:16:27;1.87;;;1.50;;
3349;SDS011;1688;51.000;13.684;2023-04-19T13:19:00;4.90;;;3.10;;
3349;SDS011;1688;51.000;13.684;2023-04-19T13:21:33;5.93;;;1.80;;
3349;SDS011;1688;51.000;13.684;2023-04-19T13:24:07;14.77;;;2.57;;
3349;SDS011;1688;51.000;13.684;2023-04-19T13:26:40;3.70;;;3.30;;
3349;SDS011;1688;51.000;13.684;2023-04-19T13:29:14;5.40;;;2.77;;
3349;SDS011;1688;51.000;13.684;2023-04-19T13:31:47;3.13;;;2.17;;
3349;SDS011;1688;51.000;13.684;2023-04-19T13:34:21;3.70;;;3.23;;
3349;SDS011;1688;51.000;13.684;2023-04-19T13:36:54;3.97;;;3.13;;
3349;SDS011;1688;51.000;13.684;2023-04-19T13:39:29;5.20;;;3.63;;
3349;SDS011;1688;51.000;13.684;2023-04-19T13:42:03;2.43;;;2.23;;
3349;SDS011;1688;51.000;13.684;2023-04-19T13:44:36;3.80;;;2.37;;
3349;SDS011;1688;51.000;13.684;2023-04-19T13:47:10;3.63;;;3.00;;
3349;SDS011;1688;51.000;13.684;2023-04-19T13:49:43;2.47;;;2.17;;
3349;SDS011;1688;51.000;13.684;2023-04-19T13:52:17;3.47;;;2.30;;
3349;SDS011;1688;51.000;13.684;2023-04-19T13:54:50;5.40;;;2.70;;
3349;SDS011;1688;51.000;13.684;2023-04-19T13:57:23;4.67;;;2.73;;
3349;SDS011;1688;51.000;13.684;2023-04-19T13:59:57;12.50;;;5.83;;
3349;SDS011;1688;51.000;13.684;2023-04-19T14:02:30;12.50;;;6.50;;
3349;SDS011;1688;51.000;13.684;2023-04-19T14:05:04;1.87;;;1.63;;
3349;SDS011;1688;51.000;13.684;2023-04-19T14:07:40;3.43;;;2.23;;
3349;SDS011;1688;51.000;13.684;2023-04-19T14:10:13;9.57;;;4.10;;
3349;SDS011;1688;51.000;13.684;2023-04-19T14:12:47;5.40;;;2.50;;
3349;SDS011;1688;51.000;13.684;2023-04-19T14:15:22;2.53;;;1.57;;
3349;SDS011;1688;51.000;13.684;2023-04-19T14:17:56;4.90;;;2.80;;
3349;SDS011;1688;51.000;13.684;2023-04-19T14:20:30;1.23;;;1.10;;
3349;SDS011;1688;51.000;13.684;2023-04-19T14:23:03;2.40;;;1.87;;
3349;SDS011;1688;51.000;13.684;2023-04-19T14:25:36;8.17;;;3.73;;
3349;SDS011;1688;51.000;13.684;2023-04-19T14:28:10;3.47;;;3.10;;
3349;SDS011;1688;51.000;13.684;2023-04-19T14:30:44;6.27;;;2.47;;
3349;SDS011;1688;51.000;13.684;2023-04-19T14:33:17;3.37;;;3.03;;
3349;SDS011;1688;51.000;13.684;2023-04-19T14:35:50;3.13;;;2.10;;
3349;SDS011;1688;51.000;13.684;2023-04-19T14:38:23;3.03;;;2.63;;
3349;SDS011;1688;51.000;13.684;2023-04-19T14:40:57;3.87;;;2.73;;
3349;SDS011;1688;51.000;13.684;2023-04-19T14:43:30;3.90;;;3.20;;
3349;SDS011;1688;51.000;13.684;2023-04-19T14:46:04;5.47;;;2.93;;
3349;SDS011;1688;51.000;13.684;2023-04-19T14:48:38;6.20;;;4.13;;
3349;SDS011;1688;51.000;13.684;2023-04-19T14:51:11;2.90;;;2.57;;
3349;SDS011;1688;51.000;13.684;2023-04-19T14:53:44;5.23;;;3.90;;
3349;SDS011;1688;51.000;13.684;2023-04-19T14:56:18;4.50;;;2.40;;
3349;SDS011;1688;51.000;13.684;2023-04-19T14:58:51;3.67;;;2.53;;
3349;SDS011;1688;51.000;13.684;2023-04-19T15:01:25;3.70;;;2.77;;
3349;SDS011;1688;51.000;13.684;2023-04-19T15:03:58;3.57;;;2.73;;
3349;SDS011;1688;51.000;13.684;2023-04-19T15:06:32;4.50;;;4.10;;
3349;SDS011;1688;51.000;13.684;2023-04-19T15:09:05;3.00;;;2.70;;
3349;SDS011;1688;51.000;13.684;2023-04-19T15:11:38;3.50;;;3.00;;
3349;SDS011;1688;51.000;13.684;2023-04-19T15:14:12;6.77;;;1.83;;
3349;SDS011;1688;51.000;13.684;2023-04-19T15:16:45;5.33;;;3.93;;
3349;SDS011;1688;51.000;13.684;2023-04-19T15:19:18;6.07;;;4.10;;
3349;SDS011;1688;51.000;13.684;2023-04-19T15:21:51;3.37;;;2.60;;
3349;SDS011;1688;51.000;13.684;2023-04-19T15:24:25;10.97;;;3.50;;
3349;SDS011;1688;51.000;13.684;2023-04-19T15:26:58;5.30;;;3.57;;
3349;SDS011;1688;51.000;13.684;2023-04-19T15:29:33;2.77;;;2.47;;
3349;SDS011;1688;51.000;13.684;2023-04-19T15:32:06;3.97;;;2.80;;
3349;SDS011;1688;51.000;13.684;2023-04-19T15:34:40;5.17;;;3.10;;
3349;SDS011;1688;51.000;13.684;2023-04-19T15:37:13;4.03;;;3.07;;
3349;SDS011;1688;51.000;13.684;2023-04-19T15:39:46;1.87;;;1.70;;
3349;SDS011;1688;51.000;13.684;2023-04-19T15:42:21;4.60;;;3.90;;
3349;SDS011;1688;51.000;13.684;2023-04-19T15:44:54;3.93;;;1.77;;
3349;SDS011;1688;51.000;13.684;2023-04-19T15:47:27;2.23;;;2.10;;
3349;SDS011;1688;51.000;13.684;2023-04-19T15:50:01;2.43;;;2.23;;
3349;SDS011;1688;51.000;13.684;2023-04-19T15:52:35;3.30;;;3.03;;
3349;SDS011;1688;51.000;13.684;2023-04-19T15:55:08;3.43;;;2.00;;
3349;SDS011;1688;51.000;13.684;2023-04-19T15:57:42;2.93;;;2.73;;
3349;SDS011;1688;51.000;13.684;2023-04-19T16:00:15;7.70;;;2.13;;
3349;SDS011;1688;51.000;13.684;2023-04-19T16:02:48;4.10;;;2.60;;
3349;SDS011;1688;51.000;13.684;2023-04-19T16:05:22;4.50;;;2.60;;
3349;SDS011;1688;51.000;13.684;2023-04-19T16:08:05;5.50;;;3.20;;
3349;SDS011;1688;51.000;13.684;2023-04-19T16:10:39;2.30;;;2.10;;
3349;SDS011;1688;51.000;13.684;2023-04-19T16:13:12;2.13;;;1.90;;